createdAt,value
2023-03-08T00:00:42.757Z,99237.41
2023-03-08T00:03:16.201Z,99240.19
2023-03-08T00:05:45.629Z,99242.34
2023-03-08T00:08:17.474Z,99242.78
2023-03-08T00:10:47.078Z,99239.53
2023-03-08T00:13:17.147Z,99243.38
2023-03-08T00:15:47.974Z,99226.25
2023-03-08T00:18:18.227Z,99233.28
2023-03-08T00:20:47.547Z,99225.41
2023-03-08T00:23:16.833Z,99233.91
2023-03-08T00:25:46.882Z,99226.91
2023-03-08T00:28:16.550Z,99234.75
2023-03-08T00:30:45.870Z,99229.03
2023-03-08T00:33:16.166Z,99223.75
2023-03-08T00:35:55.136Z,99226.19
2023-03-08T00:38:26.248Z,99229.63
2023-03-08T00:40:55.915Z,99233.94
2023-03-08T00:43:27.026Z,99232.28
2023-03-08T00:45:56.853Z,99239.03
2023-03-08T00:48:29.850Z,99237.00
2023-03-08T00:51:02.280Z,99241.41
2023-03-08T00:53:32.594Z,99239.66
2023-03-08T00:56:01.936Z,99243.16
2023-03-08T00:58:32.600Z,99244.63
2023-03-08T01:01:09.755Z,99244.75
2023-03-08T01:03:39.871Z,99248.09
2023-03-08T01:06:11.142Z,99251.34
2023-03-08T01:08:43.570Z,99254.81
2023-03-08T01:11:28.990Z,99261.66
2023-03-08T01:13:58.715Z,99256.00
2023-03-08T01:16:31.455Z,99261.22
2023-03-08T01:19:02.746Z,99268.69
2023-03-08T01:21:32.858Z,99270.63
2023-03-08T01:24:02.559Z,99272.53
2023-03-08T01:26:31.852Z,99256.38
2023-03-08T01:29:01.976Z,99266.59
2023-03-08T01:31:32.251Z,99260.84
2023-03-08T01:34:01.688Z,99266.12
2023-03-08T01:36:31.696Z,99276.47
2023-03-08T01:39:02.804Z,99267.63
2023-03-08T01:41:35.438Z,99274.47
2023-03-08T01:44:04.826Z,99269.87
2023-03-08T01:46:37.075Z,99272.28
2023-03-08T01:49:12.519Z,99270.16
2023-03-08T01:52:04.036Z,99271.00
2023-03-08T01:54:43.262Z,99261.19
2023-03-08T01:57:21.787Z,99255.53
2023-03-08T01:59:54.269Z,99255.56
2023-03-08T02:02:29.948Z,99266.09
2023-03-08T02:05:00.154Z,99263.38
2023-03-08T02:07:32.499Z,99266.91
2023-03-08T02:10:02.833Z,99276.13
2023-03-08T02:12:33.550Z,99268.81
2023-03-08T02:15:06.150Z,99273.47
2023-03-08T02:17:40.011Z,99277.00
2023-03-08T02:20:34.798Z,99279.16
2023-03-08T02:23:26.408Z,99254.19
2023-03-08T02:26:03.865Z,99274.31
2023-03-08T02:28:34.613Z,99277.37
2023-03-08T02:31:04.124Z,99278.31
2023-03-08T02:33:35.772Z,99278.44
2023-03-08T02:36:07.008Z,99281.44
2023-03-08T02:38:38.926Z,99284.94
2023-03-08T02:41:08.048Z,99283.13
2023-03-08T02:43:38.432Z,99278.59
2023-03-08T02:46:18.235Z,99271.94
2023-03-08T02:48:50.571Z,99279.53
2023-03-08T02:51:21.366Z,99277.59
2023-03-08T02:53:52.162Z,99277.94
2023-03-08T02:56:24.105Z,99279.22
2023-03-08T02:58:53.833Z,99279.41
2023-03-08T03:01:24.271Z,99286.25
2023-03-08T03:03:56.221Z,99289.81
2023-03-08T03:06:25.787Z,99291.13
2023-03-08T03:08:56.980Z,99286.31
2023-03-08T03:11:26.789Z,99283.59
2023-03-08T03:14:00.622Z,99288.25
2023-03-08T03:16:32.609Z,99278.25
2023-03-08T03:19:02.466Z,99291.09
2023-03-08T03:21:31.969Z,99284.16
2023-03-08T03:24:02.305Z,99291.69
2023-03-08T03:26:32.442Z,99289.25
2023-03-08T03:29:02.591Z,99293.47
2023-03-08T03:31:33.495Z,99292.66
2023-03-08T03:34:03.560Z,99284.91
2023-03-08T03:36:35.220Z,99283.69
2023-03-08T03:39:05.463Z,99286.28
2023-03-08T03:41:36.581Z,99296.62
2023-03-08T03:44:06.610Z,99300.03
2023-03-08T03:46:36.908Z,99302.56
2023-03-08T03:49:07.658Z,99299.31
2023-03-08T03:51:37.454Z,99299.78
2023-03-08T03:54:09.244Z,99311.78
2023-03-08T03:56:43.065Z,99301.63
2023-03-08T03:59:12.776Z,99302.06
2023-03-08T04:01:43.711Z,99303.81
2023-03-08T04:04:13.917Z,99298.44
2023-03-08T04:06:43.991Z,99301.22
2023-03-08T04:09:18.141Z,99298.81
2023-03-08T04:11:48.135Z,99293.19
2023-03-08T04:14:18.801Z,99296.53
2023-03-08T04:16:48.261Z,99293.31
2023-03-08T04:19:19.169Z,99286.41
2023-03-08T04:21:50.007Z,99283.09
2023-03-08T04:24:21.291Z,99284.25
2023-03-08T04:26:51.257Z,99285.97
2023-03-08T04:29:21.758Z,99297.72
2023-03-08T04:31:52.195Z,99301.13
2023-03-08T04:34:22.468Z,99296.69
2023-03-08T04:36:52.335Z,99298.50
2023-03-08T04:39:23.515Z,99306.34
2023-03-08T04:41:53.203Z,99308.28
2023-03-08T04:44:26.532Z,99305.56
2023-03-08T04:46:56.765Z,99313.66
2023-03-08T04:49:27.593Z,99324.44
2023-03-08T04:51:57.698Z,99317.75
2023-03-08T04:54:28.211Z,99323.34
2023-03-08T04:56:59.824Z,99330.63
2023-03-08T04:59:29.905Z,99335.22
2023-03-08T05:02:00.242Z,99334.59
2023-03-08T05:04:31.134Z,99329.94
2023-03-08T05:07:01.085Z,99337.59
2023-03-08T05:09:31.930Z,99337.75
2023-03-08T05:12:01.247Z,99343.69
2023-03-08T05:14:33.487Z,99348.62
2023-03-08T05:17:07.055Z,99358.72
2023-03-08T05:19:44.962Z,99357.78
2023-03-08T05:22:18.554Z,99361.72
2023-03-08T05:24:51.856Z,99367.63
2023-03-08T05:30:13.669Z,99370.66
2023-03-08T05:32:43.776Z,99372.09
2023-03-08T05:35:13.903Z,99378.19
2023-03-08T05:37:43.476Z,99377.00
2023-03-08T05:40:14.120Z,99383.66
2023-03-08T05:42:45.170Z,99383.19
2023-03-08T05:45:16.498Z,99378.22
2023-03-08T05:47:50.135Z,99374.19
2023-03-08T05:50:20.135Z,99372.41
2023-03-08T05:52:52.294Z,99374.44
2023-03-08T05:55:24.939Z,99370.41
2023-03-08T05:57:55.833Z,99367.75
2023-03-08T06:00:45.208Z,99370.13
2023-03-08T06:03:16.527Z,99364.16
2023-03-08T06:05:46.337Z,99364.34
2023-03-08T06:08:16.238Z,99363.00
2023-03-08T06:10:45.693Z,99358.03
2023-03-08T06:13:17.310Z,99355.84
2023-03-08T06:15:46.851Z,99360.00
2023-03-08T06:18:17.259Z,99366.44
2023-03-08T06:20:55.864Z,99357.31
2023-03-08T06:23:25.645Z,99363.81
2023-03-08T06:25:55.669Z,99367.41
2023-03-08T06:28:26.851Z,99368.44
2023-03-08T06:30:56.688Z,99364.19
2023-03-08T06:33:29.299Z,99373.69
2023-03-08T06:36:01.174Z,99374.63
2023-03-08T06:38:33.539Z,99371.38
2023-03-08T06:41:04.227Z,99373.25
2023-03-08T06:43:34.946Z,99365.50
2023-03-08T06:46:07.298Z,99369.63
2023-03-08T06:48:37.852Z,99359.72
2023-03-08T06:51:10.113Z,99369.66
2023-03-08T06:53:41.114Z,99365.59
2023-03-08T06:56:14.835Z,99370.88
2023-03-08T06:58:45.377Z,99364.56
2023-03-08T07:01:25.644Z,99363.09
2023-03-08T07:03:56.200Z,99365.09
2023-03-08T07:06:25.570Z,99355.00
2023-03-08T07:08:55.012Z,99356.41
2023-03-08T07:11:32.243Z,99349.38
2023-03-08T07:14:01.773Z,99349.09
2023-03-08T07:16:31.760Z,99352.22
2023-03-08T07:19:03.747Z,99343.81
2023-03-08T07:21:34.138Z,99335.25
2023-03-08T07:24:03.291Z,99332.50
2023-03-08T07:26:33.526Z,99325.28
2023-03-08T07:29:05.001Z,99321.41
2023-03-08T07:31:36.955Z,99312.19
2023-03-08T07:34:06.969Z,99310.59
2023-03-08T07:36:36.430Z,99301.84
2023-03-08T07:39:06.221Z,99299.84
2023-03-08T07:41:37.085Z,99299.66
2023-03-08T07:44:07.335Z,99297.63
2023-03-08T07:46:37.348Z,99293.00
2023-03-08T07:49:11.236Z,99288.25
2023-03-08T07:51:42.418Z,99301.53
2023-03-08T07:54:16.229Z,99292.81
2023-03-08T07:56:46.234Z,99284.87
2023-03-08T07:59:16.075Z,99280.28
2023-03-08T08:01:45.866Z,99281.38
2023-03-08T08:04:16.297Z,99275.75
2023-03-08T08:06:45.865Z,99282.28
2023-03-08T08:09:15.614Z,99272.19
2023-03-08T08:11:45.677Z,99263.88
2023-03-08T08:14:15.637Z,99245.22
2023-03-08T08:16:46.866Z,99236.47
2023-03-08T08:19:18.161Z,99237.72
2023-03-08T08:21:48.634Z,99256.69
2023-03-08T08:24:18.770Z,99253.37
2023-03-08T08:26:47.980Z,99251.09
2023-03-08T08:29:17.242Z,99233.53
2023-03-08T08:31:47.312Z,99245.75
2023-03-08T08:34:17.345Z,99245.09
2023-03-08T08:36:47.547Z,99240.63
2023-03-08T08:39:17.295Z,99247.53
2023-03-08T08:41:49.778Z,99247.56
2023-03-08T08:44:19.561Z,99245.72
2023-03-08T08:46:49.651Z,99278.03
2023-03-08T08:49:22.359Z,99276.75
2023-03-08T08:51:54.657Z,99260.69
2023-03-08T08:54:23.847Z,99270.25
2023-03-08T08:56:53.560Z,99262.06
2023-03-08T08:59:23.492Z,99259.09
2023-03-08T09:01:52.970Z,99248.97
2023-03-08T09:04:24.788Z,99238.56
2023-03-08T09:06:54.850Z,99239.78
2023-03-08T09:09:29.817Z,99245.38
2023-03-08T09:11:59.157Z,99232.06
2023-03-08T09:14:29.037Z,99221.25
2023-03-08T09:16:58.625Z,99224.09
2023-03-08T09:19:29.469Z,99220.38
2023-03-08T09:21:59.146Z,99221.88
2023-03-08T09:24:30.118Z,99222.84
2023-03-08T09:27:00.032Z,99218.44
2023-03-08T09:29:29.890Z,99215.81
2023-03-08T09:32:01.643Z,99208.09
2023-03-08T09:34:34.048Z,99203.47
2023-03-08T09:37:03.819Z,99200.63
2023-03-08T09:39:34.638Z,99198.84
2023-03-08T09:42:28.157Z,99184.87
2023-03-08T09:45:08.052Z,99174.53
2023-03-08T09:47:47.210Z,99176.09
2023-03-08T09:50:22.502Z,99168.53
2023-03-08T09:53:02.833Z,99185.50
2023-03-08T09:55:39.739Z,99167.25
2023-03-08T09:58:19.535Z,99170.22
2023-03-08T10:00:49.892Z,99161.31
2023-03-08T10:03:32.043Z,99154.72
2023-03-08T10:06:09.287Z,99153.81
2023-03-08T10:09:05.876Z,99142.94
2023-03-08T10:11:46.130Z,99138.75
2023-03-08T10:14:24.750Z,99141.00
2023-03-08T10:17:01.777Z,99133.91
2023-03-08T10:19:43.757Z,99132.22
2023-03-08T10:22:27.329Z,99132.87
2023-03-08T10:24:57.889Z,99123.72
2023-03-08T10:27:32.890Z,99123.87
2023-03-08T10:31:07.204Z,99114.06
2023-03-08T10:33:16.293Z,99104.09
2023-03-08T10:36:13.215Z,99100.25
2023-03-08T10:38:43.223Z,99099.38
2023-03-08T10:41:18.511Z,99091.69
2023-03-08T10:43:51.740Z,99087.72
2023-03-08T10:46:23.645Z,99092.44
2023-03-08T10:48:53.291Z,99083.78
2023-03-08T10:51:31.200Z,99077.69
2023-03-08T10:54:03.786Z,99072.59
2023-03-08T10:56:53.696Z,99082.62
2023-03-08T10:59:32.884Z,99068.94
2023-03-08T11:02:24.575Z,99066.91
2023-03-08T11:05:00.129Z,99057.97
2023-03-08T11:07:33.589Z,99060.41
2023-03-08T11:10:19.386Z,99049.56
2023-03-08T11:12:49.160Z,99047.38
2023-03-08T11:15:23.650Z,99040.69
2023-03-08T11:18:08.029Z,99031.19
2023-03-08T11:20:46.248Z,99028.50
2023-03-08T11:23:22.824Z,99025.16
2023-03-08T11:25:56.807Z,99022.75
2023-03-08T11:28:35.364Z,99021.16
2023-03-08T11:31:15.958Z,99027.41
2023-03-08T11:34:08.689Z,99026.28
2023-03-08T11:36:45.389Z,99007.81
2023-03-08T11:39:29.653Z,99015.44
2023-03-08T11:42:16.525Z,99006.84
2023-03-08T11:45:07.289Z,98995.50
2023-03-08T11:48:01.372Z,98995.56
2023-03-08T11:50:43.127Z,98993.91
2023-03-08T11:53:33.639Z,98985.09
2023-03-08T11:56:13.648Z,98974.41
2023-03-08T11:58:55.844Z,98965.44
2023-03-08T12:01:35.874Z,98964.25
2023-03-08T12:04:13.913Z,98957.84
2023-03-08T12:06:45.705Z,98954.09
2023-03-08T12:09:39.748Z,98947.16
2023-03-08T12:12:22.668Z,98936.50
2023-03-08T12:15:02.753Z,98938.00
2023-03-08T12:17:39.993Z,98927.81
2023-03-08T12:20:23.277Z,98929.25
2023-03-08T12:23:09.711Z,98907.66
2023-03-08T12:25:42.897Z,98919.47
2023-03-08T12:28:26.247Z,98910.06
2023-03-08T12:31:29.057Z,98893.22
2023-03-08T12:34:00.671Z,98899.06
2023-03-08T12:36:40.623Z,98896.22
2023-03-08T12:39:41.570Z,98895.47
2023-03-08T12:42:12.583Z,98886.72
2023-03-08T12:44:42.260Z,98894.13
2023-03-08T12:47:23.305Z,98877.69
2023-03-08T12:49:59.825Z,98877.12
2023-03-08T12:52:36.114Z,98869.19
2023-03-08T12:55:18.032Z,98844.66
2023-03-08T12:57:52.770Z,98861.09
2023-03-08T13:00:26.144Z,98861.75
2023-03-08T13:03:07.187Z,98847.31
2023-03-08T13:05:39.770Z,98847.94
2023-03-08T13:08:18.344Z,98837.16
2023-03-08T13:10:51.253Z,98831.81
2023-03-08T13:13:41.480Z,98828.66
2023-03-08T13:16:31.900Z,98817.09
2023-03-08T13:19:24.239Z,98803.66
2023-03-08T13:22:13.609Z,98810.41
2023-03-08T13:24:55.342Z,98798.41
2023-03-08T13:27:59.382Z,98795.16
2023-03-08T13:30:52.863Z,98792.16
2023-03-08T13:33:27.990Z,98775.25
2023-03-08T13:36:05.537Z,98771.72
2023-03-08T13:38:37.488Z,98776.66
2023-03-08T13:41:07.622Z,98773.31
2023-03-08T13:43:37.567Z,98773.13
2023-03-08T13:46:21.269Z,98763.63
2023-03-08T13:48:50.784Z,98752.41
2023-03-08T13:51:21.136Z,98751.56
2023-03-08T13:53:50.806Z,98744.78
2023-03-08T13:56:26.695Z,98742.28
2023-03-08T13:59:00.550Z,98735.13
2023-03-08T14:01:31.733Z,98730.78
2023-03-08T14:04:12.937Z,98724.12
2023-03-08T14:06:51.080Z,98726.91
2023-03-08T14:09:21.406Z,98715.28
2023-03-08T14:12:09.578Z,98723.22
2023-03-08T14:14:44.694Z,98712.41
2023-03-08T14:17:25.118Z,98703.28
2023-03-08T14:19:59.711Z,98705.06
2023-03-08T14:22:39.791Z,98695.47
2023-03-08T14:25:24.241Z,98692.38
2023-03-08T14:27:55.044Z,98687.81
2023-03-08T14:30:27.373Z,98672.31
2023-03-08T14:33:30.632Z,98671.97
2023-03-08T14:36:06.987Z,98676.16
2023-03-08T14:38:37.884Z,98663.00
2023-03-08T14:41:08.112Z,98654.56
2023-03-08T14:43:38.319Z,98649.16
2023-03-08T14:46:12.102Z,98638.91
2023-03-08T14:48:44.255Z,98621.72
2023-03-08T14:51:22.121Z,98620.91
2023-03-08T14:54:03.960Z,98613.09
2023-03-08T14:56:35.526Z,98619.22
2023-03-08T14:59:08.056Z,98606.56
2023-03-08T15:01:41.218Z,98594.09
2023-03-08T15:04:21.584Z,98597.16
2023-03-08T15:06:54.538Z,98594.91
2023-03-08T15:09:24.159Z,98590.75
2023-03-08T15:11:54.703Z,98592.72
2023-03-08T15:14:24.213Z,98582.59
2023-03-08T15:16:56.050Z,98577.50
2023-03-08T15:19:26.028Z,98572.12
2023-03-08T15:21:55.969Z,98571.72
2023-03-08T15:24:25.192Z,98566.25
2023-03-08T15:26:56.681Z,98560.34
2023-03-08T15:29:30.495Z,98541.28
2023-03-08T15:32:01.039Z,98550.22
2023-03-08T15:34:30.783Z,98548.75
2023-03-08T15:37:00.134Z,98543.03
2023-03-08T15:39:30.313Z,98542.81
2023-03-08T15:42:01.231Z,98533.97
2023-03-08T15:44:30.607Z,98527.69
2023-03-08T15:47:02.362Z,98527.63
2023-03-08T15:49:31.443Z,98520.28
2023-03-08T15:52:01.272Z,98504.91
2023-03-08T15:54:32.792Z,98492.09
2023-03-08T15:57:03.190Z,98487.94
2023-03-08T15:59:32.480Z,98482.69
2023-03-08T16:02:03.473Z,98483.78
2023-03-08T16:04:35.373Z,98481.19
2023-03-08T16:07:05.113Z,98484.25
2023-03-08T16:09:35.106Z,98468.66
2023-03-08T16:12:04.355Z,98466.63
2023-03-08T16:14:33.689Z,98463.59
2023-03-08T16:17:08.951Z,98462.72
2023-03-08T16:19:38.379Z,98453.16
2023-03-08T16:22:09.197Z,98445.59
2023-03-08T16:24:38.596Z,98446.78
2023-03-08T16:27:08.628Z,98441.28
2023-03-08T16:29:38.697Z,98446.06
2023-03-08T16:32:08.697Z,98436.53
2023-03-08T16:34:40.792Z,98424.47
2023-03-08T16:37:10.545Z,98421.88
2023-03-08T16:39:40.661Z,98423.16
2023-03-08T16:42:14.375Z,98404.44
2023-03-08T16:44:49.191Z,98402.31
2023-03-08T16:47:19.787Z,98394.69
2023-03-08T16:52:32.442Z,98386.38
2023-03-08T16:55:02.058Z,98370.87
2023-03-08T16:57:31.550Z,98353.63
2023-03-08T17:00:03.443Z,98360.00
2023-03-08T17:02:32.540Z,98352.34
2023-03-08T17:05:03.781Z,98344.59
2023-03-08T17:07:33.523Z,98347.47
2023-03-08T17:10:03.142Z,98336.28
2023-03-08T17:12:33.028Z,98328.06
2023-03-08T17:15:05.265Z,98330.56
2023-03-08T17:17:35.452Z,98323.94
2023-03-08T17:20:06.286Z,98311.66
2023-03-08T17:22:36.935Z,98314.69
2023-03-08T17:25:07.409Z,98307.31
2023-03-08T17:27:47.331Z,98306.66
2023-03-08T17:30:17.147Z,98308.16
2023-03-08T17:32:46.430Z,98290.66
2023-03-08T17:35:16.045Z,98299.63
2023-03-08T17:37:45.947Z,98288.03
2023-03-08T17:40:15.296Z,98284.72
2023-03-08T17:42:48.440Z,98285.47
2023-03-08T17:45:19.405Z,98283.06
2023-03-08T17:47:49.418Z,98277.63
2023-03-08T17:50:20.016Z,98274.47
2023-03-08T17:52:49.321Z,98273.09
2023-03-08T17:55:19.128Z,98274.66
2023-03-08T17:57:48.543Z,98274.12
2023-03-08T18:00:20.349Z,98261.13
2023-03-08T18:02:50.232Z,98259.78
2023-03-08T18:05:19.860Z,98252.97
2023-03-08T18:07:50.065Z,98244.00
2023-03-08T18:10:19.567Z,98250.41
2023-03-08T18:12:50.289Z,98243.22
2023-03-08T18:15:20.449Z,98239.34
2023-03-08T18:17:52.231Z,98237.50
2023-03-08T18:20:24.158Z,98233.53
2023-03-08T18:22:54.320Z,98230.63
2023-03-08T18:25:24.455Z,98227.94
2023-03-08T18:27:53.890Z,98226.34
2023-03-08T18:30:24.781Z,98230.22
2023-03-08T18:32:54.320Z,98219.88
2023-03-08T18:35:24.477Z,98222.09
2023-03-08T18:37:53.764Z,98218.63
2023-03-08T18:40:24.219Z,98219.88
2023-03-08T18:42:54.386Z,98225.06
2023-03-08T18:45:24.481Z,98214.19
2023-03-08T18:47:54.297Z,98216.31
2023-03-08T18:50:25.853Z,98206.81
2023-03-08T18:52:56.384Z,98194.28
2023-03-08T18:55:28.545Z,98213.12
2023-03-08T18:57:58.663Z,98199.78
2023-03-08T19:00:28.605Z,98202.66
2023-03-08T19:02:58.314Z,98210.94
2023-03-08T19:05:27.612Z,98196.75
2023-03-08T19:07:58.799Z,98202.16
2023-03-08T19:10:30.150Z,98203.38
2023-03-08T19:13:06.962Z,98199.50
2023-03-08T19:15:39.087Z,98202.81
2023-03-08T19:18:10.912Z,98194.31
2023-03-08T19:20:42.761Z,98207.97
2023-03-08T19:23:20.525Z,98197.41
2023-03-08T19:26:09.451Z,98194.09
2023-03-08T19:28:41.832Z,98201.69
2023-03-08T19:31:18.046Z,98206.31
2023-03-08T19:33:50.684Z,98190.41
2023-03-08T19:36:22.539Z,98197.34
2023-03-08T19:38:53.002Z,98187.28
2023-03-08T19:41:22.057Z,98184.72
2023-03-08T19:43:52.032Z,98191.34
2023-03-08T19:46:22.455Z,98194.84
2023-03-08T19:48:52.687Z,98190.53
2023-03-08T19:51:21.999Z,98181.72
2023-03-08T19:53:51.316Z,98195.78
2023-03-08T19:56:21.902Z,98186.91
2023-03-08T19:58:52.099Z,98191.44
2023-03-08T20:01:22.094Z,98197.41
2023-03-08T20:03:52.225Z,98193.91
2023-03-08T20:06:24.936Z,98183.59
2023-03-08T20:08:56.163Z,98182.25
2023-03-08T20:11:25.855Z,98196.84
2023-03-08T20:13:55.404Z,98200.16
2023-03-08T20:16:25.925Z,98216.87
2023-03-08T20:18:58.129Z,98218.97
2023-03-08T20:21:32.087Z,98226.81
2023-03-08T20:24:01.621Z,98223.88
2023-03-08T20:26:33.716Z,98212.03
2023-03-08T20:29:04.437Z,98191.00
2023-03-08T20:31:34.230Z,98190.38
2023-03-08T20:34:04.573Z,98194.91
2023-03-08T20:36:33.772Z,98200.38
2023-03-08T20:39:04.088Z,98195.34
2023-03-08T20:41:33.308Z,98200.44
2023-03-08T20:44:04.179Z,98190.22
2023-03-08T20:46:34.092Z,98202.50
2023-03-08T20:49:04.430Z,98193.03
2023-03-08T20:51:33.619Z,98200.03
2023-03-08T20:54:03.391Z,98203.09
2023-03-08T20:56:32.884Z,98202.19
2023-03-08T20:59:03.057Z,98212.44
2023-03-08T21:01:34.519Z,98200.97
2023-03-08T21:04:05.627Z,98202.91
2023-03-08T21:06:35.855Z,98200.50
2023-03-08T21:09:05.642Z,98197.31
2023-03-08T21:11:35.413Z,98209.31
2023-03-08T21:14:05.591Z,98215.31
2023-03-08T21:16:37.107Z,98237.19
2023-03-08T21:19:08.205Z,98230.25
2023-03-08T21:21:39.891Z,98232.84
2023-03-08T21:24:15.516Z,98232.56
2023-03-08T21:26:45.610Z,98234.91
2023-03-08T21:29:18.452Z,98237.84
2023-03-08T21:31:50.226Z,98247.69
2023-03-08T21:34:21.253Z,98238.22
2023-03-08T21:36:50.423Z,98242.16
2023-03-08T21:39:20.794Z,98244.53
2023-03-08T21:41:55.378Z,98253.09
2023-03-08T21:44:26.352Z,98254.28
2023-03-08T21:46:56.590Z,98254.06
2023-03-08T21:49:29.658Z,98252.94
2023-03-08T21:52:00.845Z,98257.75
2023-03-08T21:54:32.105Z,98266.72
2023-03-08T21:57:01.877Z,98266.38
2023-03-08T21:59:32.768Z,98270.06
2023-03-08T22:02:02.329Z,98271.72
2023-03-08T22:04:32.446Z,98260.28
2023-03-08T22:07:01.984Z,98269.09
2023-03-08T22:09:32.242Z,98272.13
2023-03-08T22:12:04.319Z,98278.97
2023-03-08T22:14:35.042Z,98280.63
2023-03-08T22:17:04.280Z,98288.19
2023-03-08T22:19:35.808Z,98287.81
2023-03-08T22:22:06.466Z,98293.50
2023-03-08T22:24:36.698Z,98302.28
2023-03-08T22:27:06.648Z,98298.53
2023-03-08T22:29:36.398Z,98303.94
2023-03-08T22:32:07.097Z,98313.12
2023-03-08T22:34:36.756Z,98307.25
2023-03-08T22:37:06.897Z,98321.78
2023-03-08T22:39:39.264Z,98314.06
2023-03-08T22:42:08.576Z,98319.34
2023-03-08T22:44:38.439Z,98322.66
2023-03-08T22:47:08.044Z,98331.87
2023-03-08T22:49:38.957Z,98336.53
2023-03-08T22:52:10.244Z,98333.97
2023-03-08T22:54:41.249Z,98332.91
2023-03-08T22:57:10.741Z,98336.53
2023-03-08T22:59:41.219Z,98338.56
2023-03-08T23:02:10.433Z,98348.19
2023-03-08T23:04:40.418Z,98346.75
2023-03-08T23:07:10.510Z,98349.56
2023-03-08T23:09:40.307Z,98355.13
2023-03-08T23:12:10.646Z,98356.38
2023-03-08T23:14:39.979Z,98361.50
2023-03-08T23:17:09.912Z,98361.22
2023-03-08T23:19:39.983Z,98357.28
2023-03-08T23:22:09.873Z,98351.78
2023-03-08T23:24:39.309Z,98356.34
2023-03-08T23:27:10.857Z,98352.50
2023-03-08T23:29:40.658Z,98360.44
2023-03-08T23:32:17.403Z,98359.06
2023-03-08T23:34:48.165Z,98359.69
2023-03-08T23:37:17.972Z,98364.75
2023-03-08T23:39:47.802Z,98360.38
2023-03-08T23:42:17.655Z,98364.66
2023-03-08T23:44:48.697Z,98363.88
2023-03-08T23:47:17.901Z,98370.50
2023-03-08T23:49:50.564Z,98364.94
2023-03-08T23:52:21.920Z,98352.00
2023-03-08T23:54:53.630Z,98353.50
2023-03-08T23:57:23.311Z,98363.53
2023-03-08T23:59:52.959Z,98361.97
